Aeroporto :
LOGIN :

Iscrizione | Disclaimer

   EN    FR    IT 

 










Sommario :    VFR   VFR Marginale   IFR   IFR Intensivo   IFR Molto Intensivo
Visibilità : 
Base nubi : 
>= 8 km
>= 3000ft
5 / 8 km
1000 / 3000 ft
1500m / 5 km
500 / 1000 ft
800 / 1500m
200 / 500 ft
< 800m
< 200 ft
Simboli :   Temporali  Nebbia  Neve Forte  Precipitazioni Forti  Vento > 20 kt
SIGMETs :   Varie  Temporali  Ghiacco  Turbolenza  Onda orograficha  Ceneri Vulcaniche







- Altitudine del aeroporto : 10 ft
- Codice IATA : TTU


GMTN - Saniat R'Mel

ULTIMO METAR :
  • 240200Z 08004KT 050V110 6000 BKN005 SCT020 23/21 Q1014 NOSIG

METARs OBSOLETI :
  • 240100Z 07005KT 6000 BKN005 SCT020 24/21 Q1014 NOSIG
  • 240000Z 06003KT 6000 BKN006 SCT020 24/21 Q1014 NOSIG

TAF N/A
Nessun NOTAM noto per questo aeroporto.
1 SIGMET conosciuto per la FIR Casablanca (GMMM) :
 
Temporali affogati
GMMM SIGMET 07 VALID 232245/240245 GMMC
GMMM CASABLANCA FIR EMBD TS FCST E OF LINE N3513 W00258 - N3234 W00 603 - N3049 W00601 TOP FL300 MOV NE WKN=



MetMap, La meteo Aeronautica in un colpo d'occhio ! - Copyright ORBIFLY Dicembre 2007 - Disclaimer

ORBIFLY MET'MAP TEAM :

Programmazione e sviluppo : Alexandra Zaïnal
Concezione e sviluppo : Baudouin d'Aumeries
Co-Programmazione e sviluppo : Marc-Olivier Méhu
Supporto tecnico e logistico : Manuel Goepfert
Aiuto per la traduzione : Arnaldo La Scala

Contatto : metmap@orbifly.com




FONTI E CREDITI :

   NOAA